createdAt,value
2019-01-02T00:00:52.507Z,25.10
2019-01-02T00:01:57.724Z,27.27
2019-01-02T00:03:03.011Z,25.77
2019-01-02T00:04:08.468Z,25.07
2019-01-02T00:05:13.612Z,24.13
2019-01-02T00:06:19.889Z,19.07
2019-01-02T00:07:26.405Z,30.45
2019-01-02T00:08:31.648Z,38.53
2019-01-02T00:09:36.955Z,29.55
2019-01-02T00:10:42.481Z,23.77
2019-01-02T00:11:47.624Z,31.80
2019-01-02T00:12:52.744Z,26.90
2019-01-02T00:13:58.295Z,26.47
2019-01-02T00:15:03.561Z,32.13
2019-01-02T00:16:08.872Z,34.00
2019-01-02T00:17:14.263Z,27.30
2019-01-02T00:18:19.498Z,29.03
2019-01-02T00:19:24.746Z,24.17
2019-01-02T00:20:30.104Z,29.83
2019-01-02T00:21:35.398Z,25.50
2019-01-02T00:22:40.487Z,30.50
2019-01-02T00:23:45.922Z,28.17
2019-01-02T00:24:51.123Z,32.07
2019-01-02T00:25:56.358Z,30.77
2019-01-02T00:27:01.564Z,24.77
2019-01-02T00:28:06.903Z,24.53
2019-01-02T00:29:12.138Z,33.30
2019-01-02T00:30:17.401Z,24.93
2019-01-02T00:31:22.914Z,22.97
2019-01-02T00:32:28.151Z,24.20
2019-01-02T00:33:33.311Z,34.30
2019-01-02T00:34:38.860Z,27.60
2019-01-02T00:35:45.084Z,24.97
2019-01-02T00:36:50.398Z,41.00
2019-01-02T00:37:55.806Z,36.57
2019-01-02T00:39:01.021Z,28.90
2019-01-02T00:40:08.809Z,24.03
2019-01-02T00:41:14.245Z,26.57
2019-01-02T00:42:19.408Z,26.90
2019-01-02T00:43:24.637Z,26.23
2019-01-02T00:44:30.086Z,26.47
2019-01-02T00:45:36.532Z,25.43
2019-01-02T00:46:41.825Z,23.80
2019-01-02T00:47:47.242Z,21.83
2019-01-02T00:48:52.522Z,29.57
2019-01-02T00:49:57.763Z,25.33
2019-01-02T00:51:03.292Z,29.63
2019-01-02T00:52:08.441Z,29.00
2019-01-02T00:53:13.697Z,31.20
2019-01-02T00:54:19.125Z,30.77
2019-01-02T00:55:24.374Z,28.27
2019-01-02T00:56:29.585Z,24.37
2019-01-02T00:57:34.937Z,25.73
2019-01-02T00:58:40.111Z,24.77
2019-01-02T00:59:45.345Z,28.27
2019-01-02T01:00:50.863Z,34.23
2019-01-02T01:01:56.048Z,28.53
2019-01-02T01:03:01.575Z,28.80
2019-01-02T01:04:06.801Z,32.37
2019-01-02T01:05:11.966Z,19.00
2019-01-02T01:06:17.484Z,33.20
2019-01-02T01:07:22.615Z,26.00
2019-01-02T01:08:27.731Z,27.63
2019-01-02T01:09:33.073Z,27.67
2019-01-02T01:10:38.297Z,30.83
2019-01-02T01:11:43.520Z,25.73
2019-01-02T01:12:48.840Z,31.93
2019-01-02T01:13:53.921Z,27.13
2019-01-02T01:14:59.162Z,26.07
2019-01-02T01:16:04.680Z,30.17
2019-01-02T01:17:09.827Z,29.23
2019-01-02T01:18:14.998Z,28.73
2019-01-02T01:19:20.644Z,26.27
2019-01-02T01:20:25.893Z,21.10
2019-01-02T01:21:31.037Z,34.50
2019-01-02T01:22:36.438Z,29.03
2019-01-02T01:23:41.731Z,24.60
2019-01-02T01:24:46.941Z,34.73
2019-01-02T01:25:53.456Z,32.77
2019-01-02T01:26:58.567Z,28.77
2019-01-02T01:28:03.852Z,29.77
2019-01-02T01:29:09.073Z,24.80
2019-01-02T01:30:14.610Z,25.03
2019-01-02T01:31:19.815Z,32.43
2019-01-02T01:32:25.058Z,26.93
2019-01-02T01:33:30.525Z,29.13
2019-01-02T01:34:35.753Z,22.27
2019-01-02T01:35:41.058Z,32.53
2019-01-02T01:36:46.179Z,36.53
2019-01-02T01:37:55.692Z,27.27
2019-01-02T01:39:00.945Z,32.50
2019-01-02T01:40:10.097Z,25.00
2019-01-02T01:41:15.253Z,23.67
2019-01-02T01:42:20.701Z,26.00
2019-01-02T01:43:25.909Z,26.43
2019-01-02T01:44:31.191Z,33.00
2019-01-02T01:45:36.538Z,27.60
2019-01-02T01:46:41.974Z,24.20
2019-01-02T01:47:47.207Z,27.40
2019-01-02T01:48:52.748Z,29.33
2019-01-02T01:49:57.967Z,31.63
2019-01-02T01:51:03.209Z,32.07
2019-01-02T01:52:08.474Z,24.97
2019-01-02T01:53:13.959Z,25.83
2019-01-02T01:54:19.214Z,30.35
2019-01-02T01:55:24.506Z,26.83
2019-01-02T01:56:30.096Z,26.67
2019-01-02T01:57:36.171Z,23.22
2019-01-02T01:58:41.652Z,38.63
2019-01-02T01:59:46.901Z,24.93
2019-01-02T02:00:52.487Z,24.40
2019-01-02T02:01:57.611Z,28.03
2019-01-02T02:03:02.836Z,27.37
2019-01-02T02:04:08.234Z,28.00
2019-01-02T02:05:13.467Z,31.20
2019-01-02T02:06:18.667Z,38.30
2019-01-02T02:07:23.895Z,26.23
2019-01-02T02:08:29.285Z,31.20
2019-01-02T02:09:34.453Z,30.17
2019-01-02T02:10:39.682Z,25.00
2019-01-02T02:11:45.020Z,28.40
2019-01-02T02:12:50.276Z,23.20
2019-01-02T02:13:55.506Z,26.80
2019-01-02T02:15:01.112Z,37.27
2019-01-02T02:16:06.421Z,37.70
2019-01-02T02:17:11.637Z,25.43
2019-01-02T02:18:16.915Z,22.37
2019-01-02T02:19:22.363Z,26.07
2019-01-02T02:20:27.598Z,28.62
2019-01-02T02:21:32.741Z,27.83
2019-01-02T02:22:38.193Z,26.47
2019-01-02T02:23:43.328Z,36.03
2019-01-02T02:24:48.491Z,24.03
2019-01-02T02:25:54.035Z,30.30
2019-01-02T02:26:59.278Z,29.10
2019-01-02T02:28:04.527Z,24.03
2019-01-02T02:29:09.690Z,33.00
2019-01-02T02:30:15.215Z,21.97
2019-01-02T02:31:20.576Z,32.53
2019-01-02T02:32:26.064Z,30.93
2019-01-02T02:33:31.193Z,22.80
2019-01-02T02:34:36.654Z,28.73
2019-01-02T02:35:41.957Z,30.65
2019-01-02T02:36:47.443Z,33.40
2019-01-02T02:37:52.921Z,28.37
2019-01-02T02:38:58.157Z,37.60
2019-01-02T02:40:03.847Z,31.73
2019-01-02T02:41:09.124Z,27.87
2019-01-02T02:42:14.631Z,30.57
2019-01-02T02:43:20.153Z,30.40
2019-01-02T02:44:25.350Z,35.40
2019-01-02T02:45:30.579Z,27.13
2019-01-02T02:46:36.107Z,25.87
2019-01-02T02:47:41.409Z,31.63
2019-01-02T02:48:46.943Z,31.20
2019-01-02T02:49:52.369Z,27.00
2019-01-02T02:50:57.582Z,36.07
2019-01-02T02:52:02.982Z,33.97
2019-01-02T02:53:08.201Z,34.53
2019-01-02T02:54:14.612Z,33.53
2019-01-02T02:55:22.775Z,35.52
2019-01-02T02:56:28.014Z,32.57
2019-01-02T02:57:33.435Z,25.80
2019-01-02T02:58:38.651Z,22.67
2019-01-02T02:59:44.275Z,33.30
2019-01-02T03:00:49.413Z,25.73
2019-01-02T03:01:54.891Z,38.33
2019-01-02T03:03:00.425Z,33.33
2019-01-02T03:04:05.600Z,25.57
2019-01-02T03:05:12.371Z,35.93
2019-01-02T03:06:17.921Z,33.77
2019-01-02T03:07:23.214Z,30.00
2019-01-02T03:08:28.489Z,34.77
2019-01-02T03:09:33.893Z,28.90
2019-01-02T03:10:39.039Z,26.90
2019-01-02T03:11:44.585Z,31.80
2019-01-02T03:12:49.713Z,31.27
2019-01-02T03:13:55.241Z,30.37
2019-01-02T03:15:00.595Z,40.08
2019-01-02T03:16:05.841Z,28.03
2019-01-02T03:17:11.581Z,34.20
2019-01-02T03:18:17.145Z,34.23
2019-01-02T03:19:22.282Z,26.03
2019-01-02T03:20:27.847Z,26.70
2019-01-02T03:21:33.094Z,23.40
2019-01-02T03:22:38.634Z,30.73
2019-01-02T03:23:44.355Z,27.27
2019-01-02T03:24:49.467Z,34.00
2019-01-02T03:25:55.036Z,36.03
2019-01-02T03:27:00.447Z,27.23
2019-01-02T03:28:05.737Z,34.23
2019-01-02T03:29:11.137Z,30.40
2019-01-02T03:30:18.614Z,30.17
2019-01-02T03:31:24.049Z,27.15
2019-01-02T03:32:29.614Z,36.13
2019-01-02T03:33:35.040Z,33.77
2019-01-02T03:34:40.153Z,30.83
2019-01-02T03:35:45.293Z,38.20
2019-01-02T03:36:50.559Z,26.07
2019-01-02T03:37:55.805Z,28.10
2019-01-02T03:39:00.933Z,29.77
2019-01-02T03:40:07.571Z,35.43
2019-01-02T03:41:12.847Z,32.10
2019-01-02T03:42:18.007Z,31.37
2019-01-02T03:43:23.248Z,31.13
2019-01-02T03:44:28.359Z,30.70
2019-01-02T03:45:33.431Z,33.67
2019-01-02T03:46:38.645Z,31.67
2019-01-02T03:47:43.790Z,32.37
2019-01-02T03:48:49.056Z,30.87
2019-01-02T03:49:54.242Z,29.90
2019-01-02T03:50:59.428Z,27.90
2019-01-02T03:52:04.698Z,27.10
2019-01-02T03:53:09.876Z,26.37
2019-01-02T03:54:15.019Z,34.10
2019-01-02T03:55:20.089Z,30.37
2019-01-02T03:56:25.251Z,31.73
2019-01-02T03:57:30.492Z,34.37
2019-01-02T03:58:35.704Z,23.70
2019-01-02T03:59:40.810Z,26.33
2019-01-02T04:00:46.061Z,34.90
2019-01-02T04:01:51.296Z,31.13
2019-01-02T04:02:56.467Z,28.23
2019-01-02T04:04:01.594Z,29.43
2019-01-02T04:05:08.486Z,33.90
2019-01-02T04:06:13.663Z,27.90
2019-01-02T04:07:18.845Z,27.43
2019-01-02T04:08:23.900Z,28.33
2019-01-02T04:09:29.025Z,31.77
2019-01-02T04:10:34.243Z,36.87
2019-01-02T04:11:39.440Z,35.83
2019-01-02T04:12:45.187Z,37.67
2019-01-02T04:13:50.338Z,37.47
2019-01-02T04:14:55.456Z,35.80
2019-01-02T04:16:00.707Z,33.60
2019-01-02T04:17:05.966Z,38.17
2019-01-02T04:18:11.062Z,26.80
2019-01-02T04:19:16.124Z,34.80
2019-01-02T04:20:21.175Z,33.43
2019-01-02T04:21:26.358Z,33.67
2019-01-02T04:22:31.517Z,25.33
2019-01-02T04:23:36.714Z,36.30
2019-01-02T04:24:41.883Z,39.83
2019-01-02T04:25:47.130Z,34.00
2019-01-02T04:26:52.401Z,38.07
2019-01-02T04:27:57.612Z,23.67
2019-01-02T04:29:02.766Z,37.03
2019-01-02T04:30:11.410Z,34.77
2019-01-02T04:31:16.718Z,37.50
2019-01-02T04:32:21.966Z,27.87
2019-01-02T04:33:27.118Z,36.53
2019-01-02T04:34:32.244Z,30.07
2019-01-02T04:35:40.229Z,36.60
2019-01-02T04:36:45.493Z,32.57
2019-01-02T04:37:50.786Z,26.53
2019-01-02T04:38:56.033Z,37.53
2019-01-02T04:40:01.326Z,42.00
2019-01-02T04:41:06.580Z,36.27
2019-01-02T04:42:11.820Z,33.83
2019-01-02T04:43:17.023Z,34.97
2019-01-02T04:44:22.255Z,41.27
2019-01-02T04:45:27.571Z,35.80
2019-01-02T04:46:32.748Z,36.50
2019-01-02T04:47:38.044Z,29.97
2019-01-02T04:48:43.193Z,37.87
2019-01-02T04:49:48.401Z,29.07
2019-01-02T04:50:53.721Z,28.40
2019-01-02T04:51:58.997Z,41.23
2019-01-02T04:53:04.265Z,39.37
2019-01-02T04:54:09.520Z,39.97
2019-01-02T04:55:14.751Z,37.63
2019-01-02T04:56:19.950Z,33.40
2019-01-02T04:57:25.182Z,34.50
2019-01-02T04:58:30.500Z,35.37
2019-01-02T04:59:35.743Z,34.43
2019-01-02T05:00:41.025Z,34.27
2019-01-02T05:01:46.340Z,36.20
2019-01-02T05:02:51.715Z,37.10
2019-01-02T05:03:56.999Z,35.30
2019-01-02T05:05:02.216Z,35.17
2019-01-02T05:06:07.399Z,30.63
2019-01-02T05:07:12.679Z,27.03
2019-01-02T05:08:17.848Z,40.47
2019-01-02T05:09:23.117Z,41.43
2019-01-02T05:10:28.419Z,36.10
2019-01-02T05:11:33.679Z,32.77
2019-01-02T05:12:38.950Z,39.10
2019-01-02T05:13:44.190Z,45.47
2019-01-02T05:14:49.411Z,30.87
2019-01-02T05:15:54.802Z,34.00
2019-01-02T05:17:00.054Z,38.30
2019-01-02T05:18:05.260Z,38.00
2019-01-02T05:19:10.492Z,32.20
2019-01-02T05:20:16.610Z,29.40
2019-01-02T05:21:21.871Z,28.33
2019-01-02T05:22:27.176Z,36.67
2019-01-02T05:23:32.465Z,37.30
2019-01-02T05:24:37.662Z,30.13
2019-01-02T05:25:42.915Z,33.20
2019-01-02T05:26:48.233Z,34.70
2019-01-02T05:27:53.425Z,34.97
2019-01-02T05:28:58.670Z,30.77
2019-01-02T05:30:04.287Z,32.67
2019-01-02T05:31:09.556Z,33.67
2019-01-02T05:32:14.710Z,38.47
2019-01-02T05:33:19.908Z,40.70
2019-01-02T05:34:25.160Z,28.63
2019-01-02T05:35:30.478Z,31.53
2019-01-02T05:36:35.751Z,32.07
2019-01-02T05:37:40.970Z,33.93
2019-01-02T05:38:46.255Z,37.07
2019-01-02T05:39:51.559Z,29.83
2019-01-02T05:40:57.000Z,38.40
2019-01-02T05:42:02.190Z,34.17
2019-01-02T05:43:07.471Z,39.27
2019-01-02T05:44:12.690Z,34.20
2019-01-02T05:45:17.956Z,36.53
2019-01-02T05:46:23.309Z,35.03
2019-01-02T05:47:28.610Z,30.47
2019-01-02T05:48:33.864Z,25.47
2019-01-02T05:49:39.118Z,35.00
2019-01-02T05:50:44.373Z,23.57
2019-01-02T05:51:49.686Z,31.57
2019-01-02T05:52:54.854Z,34.03
2019-01-02T05:54:00.023Z,44.83
2019-01-02T05:55:05.246Z,29.03
2019-01-02T05:56:10.530Z,40.30
2019-01-02T05:57:15.825Z,34.13
2019-01-02T05:58:20.994Z,37.83
2019-01-02T05:59:26.280Z,38.73
2019-01-02T06:00:31.507Z,34.37
2019-01-02T06:01:36.742Z,38.00
2019-01-02T06:02:41.939Z,28.47
2019-01-02T06:03:47.156Z,28.43
2019-01-02T06:04:52.474Z,28.70
2019-01-02T06:05:57.726Z,31.23
2019-01-02T06:07:03.041Z,33.40
2019-01-02T06:08:08.176Z,28.13
2019-01-02T06:09:13.440Z,29.27
2019-01-02T06:10:18.619Z,38.17
2019-01-02T06:11:23.817Z,31.73
2019-01-02T06:12:29.138Z,29.97
2019-01-02T06:13:34.446Z,29.03
2019-01-02T06:14:39.741Z,25.80
2019-01-02T06:15:44.995Z,29.73
2019-01-02T06:16:51.223Z,31.50
2019-01-02T06:17:56.485Z,26.43
2019-01-02T06:19:01.818Z,24.20
2019-01-02T06:20:08.884Z,34.83
2019-01-02T06:21:14.186Z,37.27
2019-01-02T06:22:19.442Z,28.80
2019-01-02T06:23:24.759Z,39.47
2019-01-02T06:24:31.069Z,31.53
2019-01-02T06:25:37.333Z,31.43
2019-01-02T06:26:42.614Z,30.00
2019-01-02T06:27:47.894Z,25.83
2019-01-02T06:28:53.195Z,23.93
2019-01-02T06:29:58.486Z,27.57
2019-01-02T06:31:03.766Z,29.50
2019-01-02T06:32:09.006Z,29.97
2019-01-02T06:33:14.309Z,33.10
2019-01-02T06:34:19.650Z,30.23
2019-01-02T06:35:24.837Z,34.13
2019-01-02T06:36:30.103Z,28.53
2019-01-02T06:37:35.479Z,32.83
2019-01-02T06:38:41.679Z,22.30
2019-01-02T06:39:47.040Z,25.00
2019-01-02T06:40:52.316Z,29.73
2019-01-02T06:41:57.592Z,31.57
2019-01-02T06:43:02.846Z,30.00
2019-01-02T06:44:08.165Z,27.87
2019-01-02T06:45:15.328Z,28.47
2019-01-02T06:46:20.559Z,29.37
2019-01-02T06:47:25.779Z,31.43
2019-01-02T06:48:31.173Z,35.60
2019-01-02T06:49:36.539Z,29.17
2019-01-02T06:50:41.789Z,35.07
2019-01-02T06:51:47.119Z,45.40
2019-01-02T06:52:52.403Z,25.90
2019-01-02T06:53:57.741Z,46.20
2019-01-02T06:55:03.050Z,35.07
2019-01-02T06:56:08.236Z,25.60
2019-01-02T06:57:13.519Z,34.43
2019-01-02T06:58:18.785Z,32.13
2019-01-02T06:59:23.970Z,28.53
2019-01-02T07:00:34.743Z,25.47
2019-01-02T07:01:39.980Z,36.73
2019-01-02T07:02:45.196Z,36.70
2019-01-02T07:03:50.465Z,33.20
2019-01-02T07:04:55.742Z,27.20
2019-01-02T07:06:01.001Z,33.70
2019-01-02T07:07:06.216Z,28.67
2019-01-02T07:08:11.542Z,34.70
2019-01-02T07:09:16.832Z,26.20
2019-01-02T07:10:22.232Z,30.57
2019-01-02T07:11:27.448Z,23.23
2019-01-02T07:12:32.824Z,27.80
2019-01-02T07:13:38.163Z,35.70
2019-01-02T07:14:43.446Z,36.07
2019-01-02T07:15:49.707Z,30.07
2019-01-02T07:16:55.011Z,35.30
2019-01-02T07:18:00.320Z,31.57
2019-01-02T07:19:05.759Z,31.47
2019-01-02T07:20:11.257Z,31.13
2019-01-02T07:21:17.630Z,29.37
2019-01-02T07:22:22.830Z,29.87
2019-01-02T07:23:28.178Z,30.63
2019-01-02T07:24:33.520Z,31.57
2019-01-02T07:25:38.842Z,41.20
2019-01-02T07:26:44.035Z,28.13
2019-01-02T07:27:49.246Z,26.07
2019-01-02T07:28:54.551Z,38.27
2019-01-02T07:29:59.831Z,29.50
2019-01-02T07:31:05.316Z,30.00
2019-01-02T07:32:10.417Z,33.27
2019-01-02T07:33:15.726Z,28.40
2019-01-02T07:34:42.758Z,26.40
2019-01-02T07:36:16.672Z,26.73
2019-01-02T07:37:57.434Z,37.10
2019-01-02T07:39:43.822Z,35.70
2019-01-02T07:41:21.645Z,32.20
2019-01-02T07:43:13.396Z,23.87
2019-01-02T07:45:17.491Z,39.00
2019-01-02T07:46:52.024Z,33.23
2019-01-02T07:48:40.378Z,24.80
2019-01-02T07:50:08.136Z,33.70
2019-01-02T07:51:53.132Z,28.17
2019-01-02T07:53:45.883Z,27.23
2019-01-02T07:55:28.062Z,26.40
2019-01-02T07:57:23.164Z,26.77
2019-01-02T07:59:04.862Z,25.47
2019-01-02T08:00:46.940Z,18.47
2019-01-02T08:02:20.002Z,31.47
2019-01-02T08:04:07.747Z,28.65
2019-01-02T08:05:50.962Z,33.97
2019-01-02T08:07:37.465Z,22.80
2019-01-02T08:08:59.444Z,30.07
2019-01-02T08:10:34.141Z,28.37
2019-01-02T08:12:23.343Z,36.40
2019-01-02T08:14:08.160Z,26.10
2019-01-02T08:15:49.609Z,28.50
2019-01-02T08:17:34.766Z,29.23
2019-01-02T08:19:11.210Z,33.95
2019-01-02T08:20:48.908Z,30.15
2019-01-02T08:22:29.466Z,22.17
2019-01-02T08:24:31.062Z,25.47
2019-01-02T08:26:15.306Z,23.77
2019-01-02T08:27:39.092Z,24.67
2019-01-02T08:28:59.523Z,31.67
2019-01-02T08:30:38.501Z,26.43
2019-01-02T08:32:29.976Z,29.20
2019-01-02T08:34:02.633Z,25.57
2019-01-02T08:36:09.660Z,30.63
2019-01-02T08:37:53.854Z,27.50
2019-01-02T08:39:50.309Z,20.47
2019-01-02T08:41:39.397Z,26.00
2019-01-02T08:43:34.685Z,21.63
2019-01-02T08:45:19.622Z,21.53
2019-01-02T08:47:24.118Z,33.50
2019-01-02T08:49:00.333Z,25.52
2019-01-02T08:50:45.639Z,26.40
2019-01-02T08:52:41.034Z,18.50
2019-01-02T08:54:18.953Z,27.23
2019-01-02T08:55:52.380Z,22.20
2019-01-02T08:57:47.763Z,28.77
2019-01-02T08:59:32.294Z,21.73
2019-01-02T09:01:14.188Z,28.00
2019-01-02T09:02:35.752Z,20.97
2019-01-02T09:04:04.006Z,21.27
2019-01-02T09:05:49.989Z,31.23
2019-01-02T09:07:41.001Z,26.77
2019-01-02T09:09:34.291Z,32.67
2019-01-02T09:11:19.593Z,31.63
2019-01-02T09:13:15.116Z,30.23
2019-01-02T09:14:55.448Z,33.43
2019-01-02T09:16:28.355Z,24.43
2019-01-02T09:18:13.462Z,26.63
2019-01-02T09:19:58.624Z,31.30
2019-01-02T09:21:56.958Z,26.87
2019-01-02T09:23:46.032Z,32.20
2019-01-02T09:25:35.477Z,28.67
2019-01-02T09:27:36.498Z,30.43
2019-01-02T09:29:21.135Z,27.63
2019-01-02T09:31:25.126Z,23.10
2019-01-02T09:33:16.146Z,26.67
2019-01-02T09:35:17.529Z,22.40
2019-01-02T09:37:17.128Z,24.23
2019-01-02T09:39:04.827Z,21.70
2019-01-02T09:40:41.280Z,19.90
2019-01-02T09:42:34.644Z,31.07
2019-01-02T09:44:16.509Z,17.70
2019-01-02T09:46:00.906Z,25.33
2019-01-02T09:47:50.349Z,24.77
2019-01-02T09:49:41.742Z,32.00
2019-01-02T09:51:35.452Z,22.47
2019-01-02T09:53:08.335Z,31.50
2019-01-02T09:54:48.651Z,20.77
2019-01-02T09:56:34.378Z,21.60
2019-01-02T09:58:23.519Z,26.93
2019-01-02T10:00:06.345Z,24.27
2019-01-02T10:01:37.174Z,27.70
2019-01-02T10:03:17.737Z,23.90
2019-01-02T10:04:59.571Z,26.67
2019-01-02T10:06:24.066Z,29.17
2019-01-02T10:08:01.469Z,28.17
2019-01-02T10:10:01.105Z,24.43
2019-01-02T10:11:29.231Z,29.77
2019-01-02T10:13:12.702Z,28.80
2019-01-02T10:15:17.056Z,22.93
2019-01-02T10:17:06.307Z,27.93
2019-01-02T10:18:53.763Z,29.70
2019-01-02T10:20:18.287Z,21.43
2019-01-02T10:22:01.755Z,21.90
2019-01-02T10:23:31.647Z,19.33
2019-01-02T10:25:16.803Z,30.90
2019-01-02T10:27:01.468Z,21.23
2019-01-02T10:28:45.982Z,28.83
2019-01-02T10:30:24.853Z,26.47
2019-01-02T10:31:59.091Z,27.97
2019-01-02T10:33:46.114Z,20.70
2019-01-02T10:35:27.486Z,21.50
2019-01-02T10:37:15.126Z,19.70
2019-01-02T10:38:59.600Z,19.77
2019-01-02T10:40:42.333Z,25.40
2019-01-02T10:42:23.118Z,27.07
2019-01-02T10:43:56.844Z,16.40
2019-01-02T10:45:54.148Z,26.87
2019-01-02T10:47:34.873Z,19.17
2019-01-02T10:49:24.882Z,25.93
2019-01-02T10:51:35.163Z,17.30
2019-01-02T10:53:07.877Z,16.43
2019-01-02T10:54:51.977Z,21.73
2019-01-02T10:56:19.533Z,13.90
2019-01-02T10:58:17.150Z,21.20
2019-01-02T10:59:57.496Z,18.47
2019-01-02T11:01:44.230Z,18.03
2019-01-02T11:03:33.695Z,14.10
2019-01-02T11:05:17.175Z,15.77
2019-01-02T11:07:03.192Z,13.53
2019-01-02T11:08:39.933Z,18.57
2019-01-02T11:10:24.711Z,17.63
2019-01-02T11:12:13.381Z,13.00
2019-01-02T11:13:58.687Z,13.60
2019-01-02T11:15:33.281Z,11.87
2019-01-02T11:17:15.080Z,13.30
2019-01-02T11:18:55.760Z,15.47
2019-01-02T11:20:43.444Z,15.20
2019-01-02T11:21:58.422Z,14.20
2019-01-02T11:23:36.831Z,14.87
2019-01-02T11:25:37.791Z,15.97
2019-01-02T11:27:25.153Z,12.27
2019-01-02T11:29:00.035Z,13.73
2019-01-02T11:30:47.912Z,16.67
2019-01-02T11:32:28.031Z,14.47
2019-01-02T11:34:06.456Z,12.50
2019-01-02T11:36:05.811Z,13.70
2019-01-02T11:37:57.815Z,10.90
2019-01-02T11:39:44.395Z,9.53
2019-01-02T11:41:15.829Z,10.57
2019-01-02T11:42:50.383Z,7.77
2019-01-02T11:44:21.386Z,9.83
2019-01-02T11:45:25.545Z,12.47
2019-01-02T11:46:30.707Z,12.57
2019-01-02T11:47:35.916Z,7.83
2019-01-02T11:48:41.196Z,9.57
2019-01-02T11:49:46.483Z,9.67
2019-01-02T11:50:51.732Z,13.10
2019-01-02T11:51:56.934Z,10.87
2019-01-02T11:53:02.281Z,9.23
2019-01-02T11:54:07.549Z,14.90
2019-01-02T11:55:12.780Z,10.53
2019-01-02T11:56:17.991Z,11.90
2019-01-02T11:57:23.262Z,10.13
2019-01-02T11:58:28.492Z,15.97
2019-01-02T11:59:33.804Z,9.93
2019-01-02T12:00:38.993Z,10.57
2019-01-02T12:01:44.245Z,13.73
2019-01-02T12:02:49.487Z,7.77
2019-01-02T12:03:55.788Z,8.67
2019-01-02T12:05:01.068Z,6.87
2019-01-02T12:06:06.378Z,5.70
2019-01-02T12:07:11.699Z,6.00
2019-01-02T12:08:18.041Z,5.53
2019-01-02T12:09:23.336Z,7.97
2019-01-02T12:10:28.566Z,9.23
2019-01-02T12:11:33.821Z,5.33
2019-01-02T12:12:39.106Z,8.63
2019-01-02T12:13:44.513Z,9.47
2019-01-02T12:14:49.770Z,10.63
2019-01-02T12:15:54.977Z,9.13
2019-01-02T12:17:00.169Z,7.60
2019-01-02T12:18:05.418Z,7.50
2019-01-02T12:19:10.560Z,8.10
2019-01-02T12:20:15.793Z,7.87
2019-01-02T12:21:20.990Z,6.20
2019-01-02T12:22:26.297Z,7.87
2019-01-02T12:23:31.539Z,6.87
2019-01-02T12:24:36.706Z,7.70
2019-01-02T12:25:41.982Z,4.73
2019-01-02T12:26:47.303Z,8.17
2019-01-02T12:27:52.460Z,11.33
2019-01-02T12:28:57.627Z,7.53
2019-01-02T12:30:03.949Z,9.27
2019-01-02T12:31:09.148Z,5.37
2019-01-02T12:32:14.431Z,5.93
2019-01-02T12:33:19.650Z,7.90
2019-01-02T12:34:24.810Z,6.63
2019-01-02T12:35:29.922Z,6.67
2019-01-02T12:36:35.197Z,6.93
2019-01-02T12:37:40.381Z,6.90
2019-01-02T12:38:45.610Z,5.23
2019-01-02T12:39:50.910Z,8.13
2019-01-02T12:40:56.169Z,6.90
2019-01-02T12:42:01.318Z,5.87
2019-01-02T12:43:06.612Z,4.23
2019-01-02T12:44:11.844Z,5.37
2019-01-02T12:45:17.074Z,9.60
2019-01-02T12:46:22.316Z,7.50
2019-01-02T12:47:27.646Z,5.57
2019-01-02T12:48:32.903Z,6.00
2019-01-02T12:49:38.133Z,8.10
2019-01-02T12:50:43.304Z,7.50
2019-01-02T12:51:48.530Z,7.67
2019-01-02T12:52:53.733Z,3.57
2019-01-02T12:53:58.982Z,7.87
2019-01-02T12:55:04.340Z,6.70
2019-01-02T12:56:11.522Z,4.97
2019-01-02T12:57:16.476Z,6.23
2019-01-02T12:58:21.709Z,3.73
2019-01-02T12:59:28.041Z,8.17
2019-01-02T13:00:41.593Z,6.57
2019-01-02T13:02:32.803Z,6.37
2019-01-02T13:04:14.562Z,8.23
2019-01-02T13:05:36.106Z,9.73
2019-01-02T13:07:30.078Z,5.80
2019-01-02T13:09:28.105Z,7.33
2019-01-02T13:10:46.234Z,3.33
2019-01-02T13:12:41.256Z,3.13
2019-01-02T13:14:11.789Z,5.47
2019-01-02T13:16:05.590Z,4.30
2019-01-02T13:17:53.901Z,4.07
2019-01-02T13:19:46.160Z,4.17
2019-01-02T13:20:59.100Z,6.17
2019-01-02T13:22:50.083Z,4.13
2019-01-02T13:24:35.000Z,3.40
2019-01-02T13:25:54.422Z,6.47
2019-01-02T13:27:18.879Z,3.90
2019-01-02T13:28:44.205Z,5.27
2019-01-02T13:30:24.090Z,5.57
2019-01-02T13:31:53.012Z,7.60
2019-01-02T13:33:39.117Z,10.47
2019-01-02T13:35:13.023Z,6.33
2019-01-02T13:36:33.038Z,6.87
2019-01-02T13:38:13.185Z,4.33
2019-01-02T13:39:53.712Z,3.30
2019-01-02T13:41:41.958Z,11.27
2019-01-02T13:43:38.124Z,5.67
2019-01-02T13:44:57.668Z,5.73
2019-01-02T13:46:58.967Z,4.90
2019-01-02T13:48:52.627Z,7.27
2019-01-02T13:50:10.676Z,6.70
2019-01-02T13:51:32.226Z,3.53
2019-01-02T13:52:37.477Z,4.57
2019-01-02T13:53:42.628Z,4.33
2019-01-02T13:54:47.905Z,5.20
2019-01-02T13:55:53.143Z,5.73
2019-01-02T13:56:58.360Z,4.97
2019-01-02T13:58:03.626Z,4.43
2019-01-02T13:59:09.020Z,5.87
2019-01-02T14:00:14.381Z,4.60
2019-01-02T14:01:19.611Z,6.93
2019-01-02T14:02:24.818Z,7.80
2019-01-02T14:03:30.074Z,7.33
2019-01-02T14:04:36.254Z,5.20
2019-01-02T14:05:44.580Z,5.30
2019-01-02T14:06:50.002Z,7.03
2019-01-02T14:07:55.228Z,8.93
2019-01-02T14:09:00.480Z,4.30
2019-01-02T14:10:06.300Z,5.70
2019-01-02T14:11:11.521Z,5.50
2019-01-02T14:12:16.788Z,6.50
2019-01-02T14:13:22.012Z,6.50
2019-01-02T14:14:27.277Z,3.47
2019-01-02T14:15:32.482Z,5.53
2019-01-02T14:16:37.686Z,3.63
2019-01-02T14:17:42.984Z,6.37
2019-01-02T14:18:48.208Z,6.70
2019-01-02T14:19:53.395Z,3.47
2019-01-02T14:20:58.602Z,3.87
2019-01-02T14:22:03.890Z,5.57
2019-01-02T14:23:09.195Z,5.47
2019-01-02T14:24:14.453Z,3.70
2019-01-02T14:25:19.669Z,5.53
2019-01-02T14:26:24.922Z,10.20
2019-01-02T14:27:30.165Z,4.63
2019-01-02T14:28:35.391Z,6.67
2019-01-02T14:29:40.556Z,7.33
2019-01-02T14:30:45.801Z,6.77
2019-01-02T14:31:50.966Z,7.97
2019-01-02T14:32:56.276Z,7.27
2019-01-02T14:34:01.412Z,6.70
2019-01-02T14:35:06.826Z,5.40
2019-01-02T14:36:11.963Z,4.57
2019-01-02T14:37:17.236Z,4.40
2019-01-02T14:38:22.400Z,5.63
2019-01-02T14:39:27.705Z,4.90
2019-01-02T14:40:32.801Z,7.73
2019-01-02T14:41:38.001Z,8.90
2019-01-02T14:42:43.223Z,3.93
2019-01-02T14:43:48.390Z,4.47
2019-01-02T14:44:53.613Z,4.43
2019-01-02T14:45:58.725Z,6.07
2019-01-02T14:47:04.008Z,4.23
2019-01-02T14:48:09.298Z,7.17
2019-01-02T14:49:14.586Z,7.17
2019-01-02T14:50:19.818Z,2.83
2019-01-02T14:51:25.065Z,6.80
2019-01-02T14:52:30.321Z,3.57
2019-01-02T14:53:35.694Z,5.03
2019-01-02T14:54:40.851Z,7.77
2019-01-02T14:55:46.007Z,4.47
2019-01-02T14:56:51.226Z,5.30
2019-01-02T14:57:56.526Z,4.03
2019-01-02T14:59:01.695Z,4.03
2019-01-02T15:00:10.488Z,4.00
2019-01-02T15:01:15.758Z,7.10
2019-01-02T15:02:21.081Z,2.63
2019-01-02T15:03:26.299Z,4.30
2019-01-02T15:04:31.588Z,6.90
2019-01-02T15:05:36.867Z,9.53
2019-01-02T15:06:42.110Z,6.37
2019-01-02T15:07:47.384Z,6.97
2019-01-02T15:08:52.547Z,5.63
2019-01-02T15:09:59.291Z,4.93
2019-01-02T15:11:08.209Z,2.30
2019-01-02T15:12:11.368Z,6.40
2019-01-02T15:13:16.538Z,3.83
2019-01-02T15:14:21.841Z,6.43
2019-01-02T15:15:27.146Z,6.97
2019-01-02T15:16:32.511Z,8.60
2019-01-02T15:17:37.852Z,7.80
2019-01-02T15:18:43.074Z,6.60
2019-01-02T15:19:48.374Z,9.97
2019-01-02T15:20:53.671Z,8.30
2019-01-02T15:22:04.734Z,8.37
2019-01-02T15:23:05.698Z,4.77
2019-01-02T15:24:10.963Z,7.97
2019-01-02T15:25:16.229Z,6.90
2019-01-02T15:26:21.403Z,10.77
2019-01-02T15:27:26.549Z,6.40
2019-01-02T15:28:31.673Z,4.77
2019-01-02T15:29:36.927Z,5.77
2019-01-02T15:30:42.148Z,6.80
2019-01-02T15:31:47.389Z,5.80
2019-01-02T15:32:52.565Z,3.53
2019-01-02T15:33:57.804Z,6.67
2019-01-02T15:35:03.025Z,6.10
2019-01-02T15:36:08.280Z,5.10
2019-01-02T15:37:13.554Z,9.43
2019-01-02T15:38:18.839Z,3.77
2019-01-02T15:39:24.004Z,5.47
2019-01-02T15:40:29.165Z,4.53
2019-01-02T15:41:34.449Z,5.30
2019-01-02T15:42:39.685Z,5.80
2019-01-02T15:43:44.947Z,3.60
2019-01-02T15:44:50.198Z,6.00
2019-01-02T15:45:55.438Z,6.27
2019-01-02T15:47:00.636Z,6.03
2019-01-02T15:48:05.966Z,3.50
2019-01-02T15:49:11.097Z,5.63
2019-01-02T15:50:16.412Z,6.97
2019-01-02T15:51:21.584Z,6.67
2019-01-02T15:52:27.133Z,3.53
2019-01-02T15:53:32.530Z,6.73
2019-01-02T15:54:37.861Z,6.67
2019-01-02T15:55:43.196Z,4.53
2019-01-02T15:56:48.355Z,7.60
2019-01-02T15:57:53.612Z,4.70
2019-01-02T15:58:58.785Z,5.83
2019-01-02T16:00:04.805Z,5.97